Abingdon, United Kingdom
Current Conditions -  °F | °C
As of 7:50 AM on Monday 24 Nov 2014 (Local Time) from EGUB Reporting Station
Haze Haze  
Wind Chill: 27°   Ceiling: Unl
Heat Index: 27°   Visibility: 5mi
Dew Point: 27°   Wind: 2mph
Humidity: 100%   Direction: 120°ESE
Pressure: 30.3"   Gusts: NA
Location:  51.67°N, 1.29°W
Report Text: EGUB 240750Z 12002KT 8000 4000NW BR FEW000 SCT250 M03/M03 Q1026 GRN BECMG 9999 NSW BLU
Loading
Personal Weather Stations






























Interactive Weather Map New forecast layout! Learn more

10-Day Weather Forecast

Advertisements
Track Severe Weather on mobile